Time,TemperatureF,DewpointF,PressureIn,WindDirection,WindDirectionDegrees,WindSpeedMPH,WindSpeedGustMPH,Humidity,HourlyPrecipIn,Conditions,Clouds,dailyrainin,SoftwareType,DateUTC
2013-05-11 00:02:00,39.0,32.0,30.20,North,7,2.0,5.0,76,0.00,,,0.01,,2013-05-11 06:02:00,
2013-05-11 00:12:00,39.0,32.0,30.20,North,7,2.0,5.0,76,0.00,,,0.01,,2013-05-11 06:12:00,
2013-05-11 00:21:00,39.0,32.0,30.20,North,7,2.0,5.0,76,0.00,,,0.01,,2013-05-11 06:21:00,
2013-05-11 00:32:00,37.0,31.0,30.24,North,7,1.0,3.0,78,0.00,,,0.01,,2013-05-11 06:32:00,
2013-05-11 00:42:00,37.0,31.0,30.24,North,352,2.0,6.0,79,0.00,,,0.01,,2013-05-11 06:42:00,
2013-05-11 00:52:00,37.0,31.0,30.24,North,352,2.0,6.0,79,0.00,,,0.01,,2013-05-11 06:52:00,
2013-05-11 01:02:00,36.0,30.0,30.27,NNW,348,0.0,2.0,80,0.00,,,0.01,,2013-05-11 07:02:00,
2013-05-11 01:11:00,36.0,30.0,30.27,NNW,348,0.0,2.0,80,0.00,,,0.01,,2013-05-11 07:11:00,
2013-05-11 01:21:00,36.0,31.0,30.28,NNW,340,1.0,2.0,83,0.00,,,0.01,,2013-05-11 07:21:00,
2013-05-11 01:32:00,35.0,30.0,30.28,NNW,340,1.0,2.0,83,0.00,,,0.01,,2013-05-11 07:32:00,
2013-05-11 01:42:00,35.0,30.0,30.28,NNW,340,1.0,2.0,83,0.00,,,0.01,,2013-05-11 07:42:00,
2013-05-11 01:52:00,35.0,30.0,30.28,NNW,340,0.0,2.0,83,0.00,,,0.01,,2013-05-11 07:52:00,
2013-05-11 02:01:00,34.0,30.0,30.28,NNW,340,0.0,0.0,85,0.00,,,0.01,,2013-05-11 08:01:00,
2013-05-11 02:12:00,34.0,30.0,30.28,NNW,340,0.0,0.0,85,0.00,,,0.01,,2013-05-11 08:12:00,
2013-05-11 02:21:00,34.0,30.0,30.29,NNW,340,0.0,2.0,84,0.00,,,0.01,,2013-05-11 08:21:00,
2013-05-11 02:32:00,34.0,30.0,30.30,NNW,340,0.0,0.0,86,0.00,,,0.01,,2013-05-11 08:32:00,
2013-05-11 02:42:00,34.0,30.0,30.30,NNW,340,0.0,2.0,86,0.00,,,0.01,,2013-05-11 08:42:00,
2013-05-11 02:52:00,34.0,30.0,30.30,NNW,340,0.0,2.0,86,0.00,,,0.01,,2013-05-11 08:52:00,
2013-05-11 03:01:00,35.0,31.0,30.30,NNW,340,1.0,2.0,86,0.00,,,0.01,,2013-05-11 09:01:00,
2013-05-11 03:11:00,35.0,31.0,30.30,NNW,340,1.0,2.0,86,0.00,,,0.01,,2013-05-11 09:11:00,
2013-05-11 03:21:00,35.0,31.0,30.31,NNW,340,0.0,3.0,85,0.00,,,0.01,,2013-05-11 09:21:00,
2013-05-11 03:32:00,35.0,31.0,30.30,NNW,340,0.0,2.0,85,0.00,,,0.01,,2013-05-11 09:32:00,
2013-05-11 03:42:00,35.0,31.0,30.30,NNW,333,2.0,5.0,86,0.00,,,0.01,,2013-05-11 09:42:00,
2013-05-11 03:52:00,35.0,31.0,30.30,NNW,333,2.0,5.0,86,0.00,,,0.01,,2013-05-11 09:52:00,
2013-05-11 04:03:00,35.0,31.0,30.30,NNW,333,0.0,0.0,84,0.00,,,0.01,,2013-05-11 10:03:00,
2013-05-11 04:12:00,35.0,31.0,30.30,NNW,333,0.0,0.0,84,0.00,,,0.01,,2013-05-11 10:12:00,
2013-05-11 04:22:00,35.0,31.0,30.29,NNW,333,0.0,0.0,84,0.00,,,0.01,,2013-05-11 10:22:00,
2013-05-11 04:33:00,34.0,30.0,30.29,NNW,333,2.0,3.0,85,0.00,,,0.01,,2013-05-11 10:33:00,
2013-05-11 04:42:00,33.0,29.0,30.29,NNW,333,1.0,2.0,85,0.00,,,0.01,,2013-05-11 10:42:00,
2013-05-11 04:52:00,33.0,29.0,30.29,NNW,333,1.0,2.0,85,0.00,,,0.01,,2013-05-11 10:52:00,
2013-05-11 05:02:00,33.0,29.0,30.29,NNW,333,1.0,2.0,86,0.00,,,0.01,,2013-05-11 11:02:00,
2013-05-11 05:11:00,33.0,29.0,30.29,NNW,333,1.0,2.0,86,0.00,,,0.01,,2013-05-11 11:11:00,
2013-05-11 05:21:00,33.0,29.0,30.28,NNW,333,0.0,2.0,86,0.00,,,0.01,,2013-05-11 11:21:00,
2013-05-11 05:32:00,32.0,29.0,30.29,NNW,333,0.0,0.0,87,0.00,,,0.01,,2013-05-11 11:32:00,
2013-05-11 05:42:00,31.0,28.0,30.29,NNW,333,1.0,2.0,87,0.00,,,0.01,,2013-05-11 11:42:00,
2013-05-11 05:51:00,31.0,28.0,30.29,NNW,333,1.0,2.0,87,0.00,,,0.01,,2013-05-11 11:51:00,
2013-05-11 06:01:00,31.0,28.0,30.32,NNW,333,3.0,5.0,87,0.00,,,0.01,,2013-05-11 12:01:00,
2013-05-11 06:11:00,31.0,28.0,30.32,NNW,333,3.0,5.0,87,0.00,,,0.01,,2013-05-11 12:11:00,
2013-05-11 06:21:00,31.0,28.0,30.32,NNW,333,0.0,3.0,88,0.00,,,0.01,,2013-05-11 12:21:00,
2013-05-11 06:32:00,31.0,28.0,30.33,NNW,333,0.0,3.0,88,0.00,,,0.01,,2013-05-11 12:32:00,
2013-05-11 06:42:00,31.0,28.0,30.32,NNW,333,0.0,0.0,89,0.00,,,0.01,,2013-05-11 12:42:00,
2013-05-11 06:52:00,31.0,28.0,30.32,NNW,333,0.0,0.0,89,0.00,,,0.01,,2013-05-11 12:52:00,
2013-05-11 07:01:00,34.0,31.0,30.34,NNW,333,0.0,2.0,88,0.00,,,0.01,,2013-05-11 13:01:00,
2013-05-11 07:11:00,34.0,31.0,30.34,NNW,333,0.0,2.0,88,0.00,,,0.01,,2013-05-11 13:11:00,
2013-05-11 07:21:00,35.0,31.0,30.33,NNW,333,0.0,1.0,84,0.00,,,0.00,,2013-05-11 13:21:00,
2013-05-11 07:32:00,37.0,31.0,30.32,NNW,333,0.0,0.0,79,0.00,,,0.00,,2013-05-11 13:32:00,
2013-05-11 07:41:00,39.0,33.0,30.31,NNW,333,0.0,0.0,78,0.00,,,0.00,,2013-05-11 13:41:00,
2013-05-11 07:52:00,39.0,33.0,30.31,NNW,333,0.0,0.0,78,0.00,,,0.00,,2013-05-11 13:52:00,
2013-05-11 08:02:00,40.0,33.0,30.32,SE,138,1.0,3.0,76,0.00,,,0.00,,2013-05-11 14:02:00,
2013-05-11 08:11:00,40.0,33.0,30.32,SE,138,1.0,3.0,76,0.00,,,0.00,,2013-05-11 14:11:00,
2013-05-11 08:21:00,40.0,32.0,30.32,SE,143,1.0,3.0,72,0.00,,,0.00,,2013-05-11 14:21:00,
2013-05-11 08:32:00,42.0,32.0,30.29,SSE,152,1.0,2.0,68,0.00,,,0.00,,2013-05-11 14:32:00,
2013-05-11 08:41:00,43.0,33.0,30.27,SSE,152,1.0,2.0,67,0.00,,,0.00,,2013-05-11 14:41:00,
2013-05-11 08:51:00,43.0,33.0,30.27,SSE,152,1.0,2.0,67,0.00,,,0.00,,2013-05-11 14:51:00,
2013-05-11 09:01:00,45.0,34.0,30.27,SSE,152,0.0,2.0,65,0.00,,,0.00,,2013-05-11 15:01:00,
2013-05-11 09:11:00,47.0,33.0,30.26,SSE,148,1.0,3.0,59,0.00,,,0.00,,2013-05-11 15:11:00,
2013-05-11 09:21:00,47.0,33.0,30.26,SSE,148,1.0,3.0,59,0.00,,,0.00,,2013-05-11 15:21:00,
2013-05-11 09:32:00,49.0,33.0,30.23,SE,134,0.0,3.0,53,0.00,,,0.00,,2013-05-11 15:32:00,
2013-05-11 09:43:00,50.0,34.0,30.21,SE,127,0.0,3.0,53,0.00,,,0.00,,2013-05-11 15:43:00,
2013-05-11 09:53:00,50.0,34.0,30.21,SE,127,0.0,3.0,53,0.00,,,0.00,,2013-05-11 15:53:00,
2013-05-11 10:02:00,50.0,33.0,30.21,SE,128,0.0,3.0,51,0.00,,,0.00,,2013-05-11 16:02:00,
2013-05-11 10:12:00,50.0,33.0,30.21,SE,128,0.0,3.0,51,0.00,,,0.00,,2013-05-11 16:12:00,
2013-05-11 10:22:00,51.0,33.0,30.21,North,355,2.0,5.0,50,0.00,,,0.00,,2013-05-11 16:22:00,
2013-05-11 10:33:00,54.0,31.0,30.17,NE,49,1.0,6.0,41,0.00,,,0.00,,2013-05-11 16:33:00,
2013-05-11 10:42:00,55.0,31.0,30.16,ENE,57,1.0,5.0,40,0.00,,,0.00,,2013-05-11 16:42:00,
2013-05-11 10:52:00,55.0,31.0,30.16,ENE,57,1.0,5.0,40,0.00,,,0.00,,2013-05-11 16:52:00,
2013-05-11 11:02:00,56.0,33.0,30.17,NE,36,4.0,10.0,41,0.00,,,0.00,,2013-05-11 17:02:00,
2013-05-11 11:12:00,56.0,33.0,30.17,NE,36,4.0,10.0,41,0.00,,,0.00,,2013-05-11 17:12:00,
2013-05-11 11:22:00,56.0,33.0,30.17,East,98,2.0,8.0,41,0.00,,,0.00,,2013-05-11 17:22:00,
2013-05-11 11:32:00,55.0,36.0,30.18,ENE,66,7.0,12.0,48,0.00,,,0.00,,2013-05-11 17:32:00,
2013-05-11 11:42:00,58.0,37.0,30.14,ENE,69,10.0,18.0,46,0.00,,,0.00,,2013-05-11 17:42:00,
2013-05-11 11:52:00,58.0,37.0,30.14,ENE,69,10.0,18.0,46,0.00,,,0.00,,2013-05-11 17:52:00,
2013-05-11 12:01:00,53.0,34.0,30.19,East,93,8.0,14.0,49,0.00,,,0.00,,2013-05-11 18:01:00,
2013-05-11 12:11:00,53.0,34.0,30.19,East,93,8.0,14.0,49,0.00,,,0.00,,2013-05-11 18:11:00,
2013-05-11 12:21:00,53.0,37.0,30.24,ENE,74,6.0,12.0,54,0.00,,,0.00,,2013-05-11 18:21:00,
2013-05-11 12:32:00,53.0,37.0,30.21,ENE,57,11.0,17.0,55,0.00,,,0.00,,2013-05-11 18:32:00,
2013-05-11 12:41:00,53.0,36.0,30.21,East,87,7.0,16.0,52,0.00,,,0.00,,2013-05-11 18:41:00,
2013-05-11 12:51:00,53.0,36.0,30.21,East,87,7.0,16.0,52,0.00,,,0.00,,2013-05-11 18:51:00,
2013-05-11 13:02:00,53.0,35.0,30.24,East,91,3.0,12.0,51,0.00,,,0.00,,2013-05-11 19:02:00,
2013-05-11 13:11:00,53.0,35.0,30.24,East,91,3.0,12.0,51,0.00,,,0.00,,2013-05-11 19:11:00,
2013-05-11 13:21:00,55.0,36.0,30.23,ENE,61,8.0,13.0,49,0.00,,,0.00,,2013-05-11 19:21:00,
2013-05-11 13:32:00,55.0,37.0,30.22,ENE,57,7.0,12.0,50,0.00,,,0.00,,2013-05-11 19:32:00,
2013-05-11 13:41:00,55.0,34.0,30.19,SE,128,1.0,3.0,45,0.00,,,0.00,,2013-05-11 19:41:00,
2013-05-11 13:52:00,55.0,34.0,30.19,SE,128,1.0,3.0,45,0.00,,,0.00,,2013-05-11 19:52:00,
2013-05-11 14:02:00,54.0,29.0,30.23,NNW,347,11.0,24.0,38,0.00,,,0.00,,2013-05-11 20:02:00,
2013-05-11 14:12:00,54.0,29.0,30.23,NNW,347,11.0,24.0,38,0.00,,,0.00,,2013-05-11 20:12:00,
2013-05-11 14:22:00,56.0,29.0,30.19,South,189,1.0,12.0,35,0.00,,,0.00,,2013-05-11 20:22:00,
2013-05-11 14:32:00,57.0,33.0,30.19,SE,128,2.0,10.0,40,0.00,,,0.00,,2013-05-11 20:32:00,
2013-05-11 14:42:00,57.0,32.0,30.18,SE,138,3.0,6.0,39,0.00,,,0.00,,2013-05-11 20:42:00,
2013-05-11 14:52:00,57.0,32.0,30.18,SE,138,3.0,6.0,39,0.00,,,0.00,,2013-05-11 20:52:00,
2013-05-11 15:02:00,60.0,30.0,30.16,WNW,289,9.0,17.0,32,0.00,,,0.00,,2013-05-11 21:02:00,
2013-05-11 15:11:00,60.0,30.0,30.16,WNW,289,9.0,17.0,32,0.00,,,0.00,,2013-05-11 21:11:00,
2013-05-11 15:21:00,58.0,28.0,30.14,West,273,15.0,26.0,31,0.00,,,0.00,,2013-05-11 21:21:00,
2013-05-11 15:33:00,53.0,30.0,30.16,WSW,256,14.0,25.0,41,0.00,,,0.00,,2013-05-11 21:33:00,
2013-05-11 15:43:00,53.0,30.0,30.16,WSW,256,14.0,25.0,41,0.00,,,0.00,,2013-05-11 21:43:00,
2013-05-11 15:53:00,54.0,30.0,30.19,West,262,9.0,20.0,40,0.00,,,0.00,,2013-05-11 21:53:00,
2013-05-11 16:02:00,57.0,28.0,30.19,NNE,23,2.0,13.0,33,0.00,,,0.00,,2013-05-11 22:02:00,
2013-05-11 16:13:00,57.0,28.0,30.19,NNE,23,2.0,13.0,33,0.00,,,0.00,,2013-05-11 22:13:00,
2013-05-11 16:23:00,59.0,32.0,30.14,East,83,4.0,13.0,36,0.00,,,0.00,,2013-05-11 22:23:00,
2013-05-11 16:33:00,58.0,29.0,30.14,SE,129,6.0,14.0,33,0.00,,,0.00,,2013-05-11 22:33:00,
2013-05-11 16:42:00,58.0,29.0,30.14,SE,129,6.0,14.0,33,0.00,,,0.00,,2013-05-11 22:42:00,
2013-05-11 16:52:00,58.0,31.0,30.14,ENE,76,12.0,14.0,35,0.00,,,0.00,,2013-05-11 22:52:00,
2013-05-11 17:02:00,54.0,34.0,30.18,NNE,33,16.0,25.0,46,0.00,,,0.00,,2013-05-11 23:02:00,
2013-05-11 17:12:00,54.0,34.0,30.18,NNE,33,16.0,25.0,46,0.00,,,0.00,,2013-05-11 23:12:00,
2013-05-11 17:22:00,53.0,36.0,30.20,East,94,9.0,18.0,52,0.00,,,0.00,,2013-05-11 23:22:00,
2013-05-11 17:32:00,54.0,34.0,30.20,ENE,72,7.0,13.0,47,0.00,,,0.00,,2013-05-11 23:32:00,
2013-05-11 17:42:00,53.0,34.0,30.20,ENE,77,2.0,12.0,48,0.00,,,0.00,,2013-05-11 23:42:00,
2013-05-11 17:52:00,53.0,34.0,30.20,ENE,77,2.0,12.0,48,0.00,,,0.00,,2013-05-11 23:52:00,
2013-05-11 18:01:00,54.0,35.0,30.20,SSE,164,7.0,12.0,49,0.00,,,0.00,,2013-05-12 00:01:00,
2013-05-11 18:11:00,54.0,35.0,30.20,SSE,164,7.0,12.0,49,0.00,,,0.00,,2013-05-12 00:11:00,
2013-05-11 18:21:00,55.0,36.0,30.18,ESE,122,4.0,6.0,48,0.00,,,0.00,,2013-05-12 00:21:00,
2013-05-11 18:32:00,53.0,35.0,30.20,East,86,1.0,5.0,50,0.00,,,0.00,,2013-05-12 00:32:00,
2013-05-11 18:42:00,53.0,37.0,30.22,NNE,12,3.0,7.0,54,0.00,,,0.00,,2013-05-12 00:42:00,
2013-05-11 18:52:00,53.0,37.0,30.22,NNE,12,3.0,7.0,54,0.00,,,0.00,,2013-05-12 00:52:00,
2013-05-11 19:01:00,51.0,33.0,30.17,WNW,285,6.0,14.0,50,0.00,,,0.00,,2013-05-12 01:01:00,
2013-05-11 19:11:00,51.0,33.0,30.17,WNW,285,6.0,14.0,50,0.00,,,0.00,,2013-05-12 01:11:00,
2013-05-11 19:21:00,48.0,34.0,30.19,WSW,241,10.0,17.0,57,0.00,,,0.00,,2013-05-12 01:21:00,
2013-05-11 19:32:00,49.0,32.0,30.16,West,274,6.0,21.0,52,0.00,,,0.00,,2013-05-12 01:32:00,
2013-05-11 19:41:00,49.0,30.0,30.16,NNW,334,10.0,20.0,48,0.00,,,0.00,,2013-05-12 01:41:00,
2013-05-11 19:52:00,49.0,30.0,30.16,NNW,334,10.0,20.0,48,0.00,,,0.00,,2013-05-12 01:52:00,
2013-05-11 20:01:00,49.0,31.0,30.14,WNW,296,6.0,20.0,49,0.00,,,0.00,,2013-05-12 02:01:00,
2013-05-11 20:11:00,49.0,31.0,30.14,WNW,296,6.0,20.0,49,0.00,,,0.00,,2013-05-12 02:11:00,
2013-05-11 20:22:00,50.0,30.0,30.14,WNW,282,5.0,12.0,46,0.00,,,0.00,,2013-05-12 02:22:00,
2013-05-11 20:32:00,51.0,30.0,30.12,WNW,297,7.0,13.0,45,0.00,,,0.00,,2013-05-12 02:32:00,
2013-05-11 20:42:00,51.0,30.0,30.12,WNW,297,7.0,13.0,45,0.00,,,0.00,,2013-05-12 02:42:00,
2013-05-11 20:52:00,51.0,30.0,30.12,WNW,297,7.0,13.0,45,0.00,,,0.00,,2013-05-12 02:52:00,
2013-05-11 21:01:00,48.0,30.0,30.09,West,261,10.0,17.0,50,0.00,,,0.00,,2013-05-12 03:01:00,
2013-05-11 21:11:00,48.0,31.0,30.09,WNW,290,5.0,17.0,51,0.00,,,0.00,,2013-05-12 03:11:00,
2013-05-11 21:22:00,48.0,31.0,30.09,WNW,290,5.0,17.0,51,0.00,,,0.00,,2013-05-12 03:22:00,
2013-05-11 21:33:00,48.0,29.0,30.09,WNW,289,7.0,12.0,48,0.00,,,0.00,,2013-05-12 03:33:00,
2013-05-11 21:42:00,48.0,29.0,30.09,WNW,289,7.0,12.0,48,0.00,,,0.00,,2013-05-12 03:42:00,
2013-05-11 21:53:00,48.0,29.0,30.09,WSW,256,6.0,12.0,47,0.00,,,0.00,,2013-05-12 03:53:00,
2013-05-11 22:02:00,-999.0,-99.9,30.06,West,280,8.0,13.0,48,0.00,,,0.00,,2013-05-12 04:02:00,
2013-05-11 22:12:00,47.0,28.0,30.06,West,280,8.0,13.0,48,0.00,,,0.00,,2013-05-12 04:12:00,
2013-05-11 22:22:00,47.0,29.0,30.08,West,262,6.0,14.0,49,0.00,,,0.00,,2013-05-12 04:22:00,
2013-05-11 22:33:00,46.0,28.0,30.08,West,264,5.0,12.0,49,0.00,,,0.00,,2013-05-12 04:33:00,
2013-05-11 22:43:00,47.0,28.0,30.08,WNW,296,5.0,8.0,47,0.00,,,0.00,,2013-05-12 04:43:00,
2013-05-11 22:52:00,47.0,28.0,30.08,WNW,296,5.0,8.0,47,0.00,,,0.00,,2013-05-12 04:52:00,
2013-05-11 23:02:00,46.0,28.0,30.05,West,261,2.0,6.0,50,0.00,,,0.00,,2013-05-12 05:02:00,
2013-05-11 23:11:00,46.0,28.0,30.05,West,261,2.0,6.0,50,0.00,,,0.00,,2013-05-12 05:11:00,
2013-05-11 23:22:00,45.0,29.0,30.04,West,278,1.0,3.0,54,0.00,,,0.00,,2013-05-12 05:22:00,
2013-05-11 23:32:00,46.0,29.0,30.06,WNW,285,2.0,10.0,52,0.00,,,0.00,,2013-05-12 05:32:00,
2013-05-11 23:42:00,46.0,29.0,30.06,WNW,285,2.0,10.0,52,0.00,,,0.00,,2013-05-12 05:42:00,
2013-05-11 23:52:00,43.0,28.0,30.06,NW,319,1.0,5.0,56,0.00,,,0.00,,2013-05-12 05:52:00,